Time;durP1;ratioP1;P1;durP2;ratioP2;P2;SDS_P1;SDS_P2;PMS_P1;PMS_P2;Temp;Humidity;BMP_temperature;BMP_pressure;BME280_temperature;BME280_humidity;BME280_pressure;Samples;Min_cycle;Max_cycle;Signal;HPM_P1;HPM_P2
2021/05/10 00:01:58;;;;;;;7.72;1.30;;;18.00;99.90;;;17.34;58.20;96351.19;4914853;28;20126;-66
2021/05/10 00:04:45;;;;;;;6.00;1.20;;;17.90;99.90;;;17.19;59.30;96357.78;4938464;29;20431;-66
2021/05/10 00:07:14;;;;;;;4.25;1.27;;;17.90;99.90;;;17.02;60.39;96356.66;4922160;29;20480;-66
2021/05/10 00:09:40;;;;;;;2.95;1.27;;;17.90;99.90;;;16.84;63.08;96364.34;4932045;28;20055;-66
2021/05/10 00:12:08;;;;;;;5.50;1.45;;;17.80;99.90;;;17.00;62.10;96355.16;4933368;29;20050;-66
2021/05/10 00:14:43;;;;;;;5.10;1.77;;;17.70;99.90;;;17.13;60.14;96353.09;4940220;28;20056;-66
2021/05/10 00:17:10;;;;;;;1.67;0.70;;;17.70;99.90;;;17.67;53.57;96329.91;4941634;29;20047;-66
2021/05/10 00:19:37;;;;;;;3.25;0.63;;;17.90;99.90;;;17.90;52.27;96312.06;4934784;28;20044;-66
2021/05/10 00:22:04;;;;;;;5.15;1.00;;;18.10;99.90;;;17.98;51.31;96273.63;4949304;28;20035;-66
2021/05/10 00:24:30;;;;;;;3.78;0.95;;;18.30;99.90;;;18.04;51.06;96300.28;4935376;29;20103;-66
2021/05/10 00:26:57;;;;;;;6.47;0.90;;;18.40;99.90;;;17.89;53.74;96300.75;4934005;29;20058;-66
2021/05/10 00:29:23;;;;;;;2.20;0.80;;;18.40;99.90;;;17.74;56.12;96270.63;4941237;28;20127;-66
2021/05/10 00:31:50;;;;;;;3.97;0.95;;;18.30;99.90;;;17.55;56.83;96259.22;4951639;29;20047;-66
2021/05/10 00:34:17;;;;;;;2.95;0.88;;;18.20;99.90;;;17.53;56.52;96239.34;4928664;29;20526;-66
2021/05/10 00:36:44;;;;;;;2.60;0.98;;;18.10;99.90;;;17.33;58.51;96251.66;4927790;29;20047;-66
2021/05/10 00:39:10;;;;;;;6.93;1.10;;;18.10;99.90;;;17.33;57.85;96236.75;4952524;29;20036;-66
2021/05/10 00:41:37;;;;;;;3.05;1.08;;;18.00;99.90;;;17.20;58.76;96230.97;4918128;29;20077;-66
2021/05/10 00:44:04;;;;;;;2.20;1.08;;;17.90;99.90;;;17.27;58.19;96231.25;4946829;28;20050;-66
2021/05/10 00:46:42;;;;;;;2.75;0.98;;;17.80;99.90;;;17.07;58.97;96220.75;4939554;29;20091;-66
2021/05/10 00:49:08;;;;;;;5.25;0.93;;;17.70;99.90;;;16.91;59.29;96223.94;4946606;28;20124;-66
2021/05/10 00:51:35;;;;;;;3.88;1.10;;;17.60;99.90;;;16.98;59.00;96218.97;4932255;28;20491;-66
2021/05/10 00:54:02;;;;;;;3.50;0.80;;;17.50;99.90;;;17.06;58.19;96223.50;4934933;29;20083;-66
2021/05/10 00:56:28;;;;;;;4.05;1.02;;;17.40;99.90;;;16.62;61.58;96213.38;4935693;28;20062;-66
2021/05/10 00:58:56;;;;;;;4.38;1.13;;;17.40;99.90;;;16.51;62.20;96216.13;4932773;29;20043;-66
2021/05/10 01:01:23;;;;;;;4.38;1.00;;;17.30;99.90;;;16.35;62.76;96216.66;4925237;29;20036;-66
2021/05/10 01:03:54;;;;;;;4.15;1.58;;;17.10;99.90;;;16.06;64.50;96212.19;4932390;29;20078;-66
2021/05/10 01:06:21;;;;;;;3.15;1.58;;;16.90;99.90;;;16.12;63.74;96215.22;4940749;28;20047;-66
2021/05/10 01:08:48;;;;;;;5.55;1.70;;;16.80;99.90;;;16.01;65.19;96213.53;4943635;29;20083;-65
2021/05/10 01:11:15;;;;;;;6.38;2.20;;;16.70;99.90;;;15.44;67.83;96218.31;4918738;29;20483;-66
2021/05/10 01:13:43;;;;;;;10.13;2.00;;;16.60;99.90;;;15.34;68.49;96218.25;4945517;29;20064;-66
2021/05/10 01:16:09;;;;;;;4.47;1.45;;;16.40;99.90;;;15.45;67.96;96209.53;4933573;29;20043;-65
2021/05/10 01:18:37;;;;;;;5.65;1.55;;;16.30;99.90;;;15.59;66.61;96214.41;4932506;28;20047;-66
2021/05/10 01:21:04;;;;;;;7.63;1.83;;;16.20;99.90;;;15.41;68.39;96214.16;4949427;29;20059;-66
2021/05/10 01:23:31;;;;;;;7.35;1.63;;;16.10;99.90;;;15.24;68.76;96218.19;4949936;28;20043;-66
2021/05/10 01:25:58;;;;;;;6.13;1.40;;;16.10;99.90;;;15.43;67.49;96217.50;4932494;29;20499;-65
2021/05/10 01:28:25;;;;;;;2.88;1.45;;;16.10;99.90;;;15.38;67.92;96224.91;4932367;29;20050;-65
2021/05/10 01:30:52;;;;;;;4.05;1.73;;;16.10;99.90;;;15.09;68.39;96227.31;4935166;29;20094;-66
2021/05/10 01:33:20;;;;;;;5.20;1.42;;;16.00;99.90;;;15.16;68.64;96231.06;4948655;28;20055;-66
2021/05/10 01:35:50;;;;;;;7.93;1.50;;;16.00;99.90;;;15.29;67.49;96235.31;4948812;29;20106;-66
2021/05/10 01:38:17;;;;;;;3.97;1.20;;;15.90;99.90;;;15.06;67.75;96238.03;4936086;29;20162;-65
2021/05/10 01:40:48;;;;;;;3.88;1.30;;;15.90;99.90;;;15.06;67.72;96232.78;4946219;28;20111;-66
2021/05/10 01:43:17;;;;;;;6.95;1.23;;;16.00;99.90;;;15.18;67.21;96228.34;4949211;28;20103;-66
2021/05/10 01:45:44;;;;;;;2.78;1.17;;;16.10;99.90;;;15.44;65.94;96231.38;4942879;28;20189;-66
2021/05/10 01:48:13;;;;;;;6.50;1.35;;;16.10;99.90;;;15.61;63.93;96222.97;4954422;28;20095;-65
2021/05/10 01:50:43;;;;;;;1.52;0.90;;;16.20;99.90;;;15.75;64.14;96232.28;4932692;29;20091;-66
2021/05/10 01:53:32;;;;;;;7.40;1.10;;;16.30;99.90;;;15.80;63.06;96229.28;4952093;28;20061;-66
2021/05/10 01:56:01;;;;;;;4.13;1.10;;;16.50;99.90;;;16.01;62.09;96222.22;4946101;28;20051;-65
2021/05/10 01:58:28;;;;;;;2.33;1.00;;;16.60;99.90;;;16.12;61.58;96221.28;4933057;28;20480;-66
2021/05/10 02:00:55;;;;;;;3.65;1.10;;;16.70;99.90;;;16.23;60.72;96217.72;4950201;28;20036;-66
2021/05/10 02:03:22;;;;;;;4.05;1.10;;;16.80;99.90;;;16.41;59.50;96217.91;4926589;29;20522;-66
2021/05/10 02:05:51;;;;;;;4.43;1.02;;;17.00;99.90;;;16.52;59.47;96212.56;4949193;28;20047;-65
2021/05/10 02:08:19;;;;;;;6.60;1.33;;;17.20;99.90;;;16.48;59.36;96224.28;4946283;28;20055;-65
2021/05/10 02:10:51;;;;;;;3.70;0.90;;;17.30;99.90;;;16.62;58.48;96229.09;4947215;28;20103;-66
2021/05/10 02:13:21;;;;;;;3.78;1.20;;;17.30;99.90;;;16.76;57.93;96230.50;4940978;28;20039;-66
2021/05/10 02:15:51;;;;;;;6.30;1.00;;;17.40;99.90;;;16.97;56.89;96219.94;4928528;29;20063;-66
2021/05/10 02:18:21;;;;;;;3.55;1.00;;;17.50;99.90;;;17.09;55.99;96215.38;4943688;28;20111;-66
2021/05/10 02:20:49;;;;;;;3.25;1.00;;;17.70;99.90;;;17.11;56.00;96211.66;4944851;28;20055;-65
2021/05/10 02:23:22;;;;;;;5.78;0.90;;;17.70;99.90;;;17.12;55.86;96217.72;4925432;29;20052;-66
2021/05/10 02:25:51;;;;;;;3.38;0.88;;;17.90;99.90;;;17.30;54.80;96215.22;4948186;28;20546;-66
2021/05/10 02:28:23;;;;;;;4.90;1.05;;;17.90;99.90;;;17.46;54.09;96215.47;4950588;28;20110;-66
2021/05/10 02:30:53;;;;;;;2.90;0.87;;;18.10;99.90;;;17.45;54.11;96223.50;4933443;29;20111;-66
2021/05/10 02:33:24;;;;;;;4.97;0.77;;;18.10;99.90;;;17.63;53.23;96206.03;4937426;28;20065;-66
2021/05/10 02:35:52;;;;;;;2.53;0.90;;;18.20;99.90;;;17.56;53.39;96216.28;4933064;28;20495;-66
2021/05/10 02:38:20;;;;;;;3.42;0.70;;;18.20;99.90;;;17.69;52.93;96213.31;4919521;29;20138;-66
2021/05/10 02:40:48;;;;;;;7.15;1.10;;;18.30;99.90;;;17.82;52.43;96214.84;4951036;29;20050;-66
2021/05/10 02:43:17;;;;;;;2.28;0.90;;;18.40;99.90;;;17.72;52.60;96207.81;4924829;29;20055;-66
2021/05/10 02:45:44;;;;;;;2.90;0.85;;;18.40;99.90;;;17.59;53.21;96215.16;4933251;29;20055;-66
2021/05/10 02:48:12;;;;;;;6.55;0.88;;;18.30;99.90;;;17.54;53.40;96223.47;4922961;29;20053;-66
2021/05/10 02:50:39;;;;;;;2.78;0.80;;;18.30;99.90;;;17.53;53.79;96210.47;4924009;29;20099;-65
2021/05/10 02:53:05;;;;;;;1.52;0.77;;;18.30;99.90;;;17.65;52.96;96225.09;4915094;29;20122;-66
2021/05/10 02:55:32;;;;;;;2.40;0.98;;;18.30;99.90;;;17.87;52.10;96236.25;4927271;29;20058;-66
2021/05/10 02:57:58;;;;;;;2.58;0.90;;;18.40;99.90;;;17.75;52.81;96246.88;4951423;28;20051;-66
2021/05/10 03:00:27;;;;;;;5.22;1.00;;;18.40;99.90;;;17.85;52.41;96233.75;4947455;28;20102;-66
2021/05/10 03:02:56;;;;;;;2.35;0.77;;;18.40;99.90;;;17.62;53.33;96241.09;4946641;29;20065;-66
2021/05/10 03:05:24;;;;;;;2.58;0.80;;;18.40;99.90;;;17.69;53.25;96251.88;4933928;29;20058;-66
2021/05/10 03:07:52;;;;;;;7.80;1.10;;;18.30;99.90;;;17.33;55.08;96275.25;4951504;28;20043;-66
2021/05/10 03:10:22;;;;;;;3.22;1.00;;;18.30;99.90;;;17.73;53.36;96317.06;4933467;29;20322;-65
2021/05/10 03:12:49;;;;;;;2.97;0.80;;;18.20;99.90;;;17.93;51.88;96409.75;4938200;28;20111;-66
2021/05/10 03:15:18;;;;;;;2.13;0.75;;;18.50;99.90;;;17.84;52.99;96386.16;4929263;29;20504;-66
2021/05/10 03:17:47;;;;;;;2.85;0.88;;;18.60;99.90;;;17.74;53.54;96407.97;4930433;28;20047;-65
2021/05/10 03:20:20;;;;;;;8.40;1.25;;;18.50;99.90;;;17.71;53.81;96434.47;4945027;28;20063;-66
2021/05/10 03:22:51;;;;;;;3.38;0.70;;;18.50;99.90;;;17.77;54.14;96415.53;4933190;29;20070;-65
2021/05/10 03:25:20;;;;;;;4.13;0.90;;;18.40;99.90;;;17.84;53.71;96418.47;4921669;29;20452;-65
2021/05/10 03:28:07;;;;;;;4.25;0.88;;;18.40;99.90;;;17.97;53.18;96462.81;4949314;28;20162;-66
2021/05/10 03:30:33;;;;;;;3.53;0.90;;;18.40;99.90;;;17.93;53.57;96474.56;4938171;28;20067;-66
2021/05/10 03:33:00;;;;;;;2.47;0.75;;;18.40;99.90;;;17.89;54.04;96462.69;4946597;28;20047;-66
2021/05/10 03:35:26;;;;;;;2.20;0.70;;;18.30;99.90;;;17.63;55.36;96488.59;4925156;29;20056;-66
2021/05/10 03:37:53;;;;;;;3.72;0.98;;;18.10;99.90;;;17.37;57.79;96459.41;4947054;28;20035;-65
2021/05/10 03:40:20;;;;;;;4.10;1.00;;;17.70;99.90;;;17.04;59.47;96427.31;4951674;29;20102;-66
2021/05/10 03:42:47;;;;;;;1.80;0.90;;;17.30;99.90;;;16.79;60.96;96439.91;4914487;29;20052;-66
2021/05/10 03:45:15;;;;;;;5.30;1.27;;;16.90;99.90;;;16.39;64.32;96445.88;4931632;28;20042;-66
2021/05/10 03:47:43;;;;;;;10.13;1.50;;;16.60;99.90;;;16.20;64.90;96451.00;4931127;28;20058;-66
2021/05/10 03:50:16;;;;;;;4.25;1.38;;;16.40;99.90;;;16.21;65.26;96457.91;4918249;29;20140;-66
2021/05/10 03:52:45;;;;;;;6.00;1.23;;;16.30;99.90;;;16.19;65.58;96455.41;4931941;28;20488;-66
2021/05/10 03:55:17;;;;;;;6.47;1.40;;;16.20;99.90;;;16.18;65.03;96468.63;4948218;28;20131;-65
2021/05/10 03:57:45;;;;;;;6.97;1.20;;;16.10;99.90;;;16.28;64.15;96480.84;4915133;29;20052;-65
2021/05/10 04:00:14;;;;;;;5.22;1.10;;;16.30;99.90;;;16.37;63.06;96479.22;4931286;29;20032;-65
2021/05/10 04:02:42;;;;;;;4.20;1.20;;;16.30;99.90;;;16.46;62.29;96485.47;4925732;29;20051;-65
2021/05/10 04:05:20;;;;;;;2.80;1.35;;;16.50;99.90;;;16.49;62.87;96480.00;4944757;29;20039;-65
2021/05/10 04:07:54;;;;;;;3.33;1.20;;;16.60;99.90;;;16.47;62.69;96480.13;4927140;28;20047;-65
2021/05/10 04:15:51;;;;;;;3.20;1.10;;;16.70;99.90;;;16.54;61.33;96479.63;4917461;29;20062;-65
2021/05/10 04:18:18;;;;;;;2.67;1.10;;;16.80;99.90;;;16.28;64.92;96485.22;4933206;29;20046;-65
2021/05/10 04:20:44;;;;;;;3.45;1.50;;;16.90;99.90;;;16.08;66.10;96484.28;4931253;29;20046;-65
2021/05/10 04:23:11;;;;;;;4.85;1.80;;;16.80;99.90;;;15.94;66.90;96484.56;4949322;28;20042;-66
2021/05/10 04:25:37;;;;;;;4.05;1.40;;;16.80;99.90;;;15.97;65.97;96487.75;4951632;29;20062;-65
2021/05/10 04:28:04;;;;;;;5.78;1.80;;;16.70;99.90;;;15.89;66.98;96484.94;4927816;29;20455;-65
2021/05/10 04:30:30;;;;;;;5.60;1.40;;;16.70;99.90;;;16.00;65.10;96473.59;4929683;29;20523;-65
2021/05/10 04:32:59;;;;;;;6.45;1.40;;;16.60;99.90;;;16.02;65.30;96476.91;4949400;29;20046;-66
2021/05/10 04:35:26;;;;;;;7.85;1.30;;;16.60;99.90;;;16.35;61.12;96485.53;4932685;29;20063;-65
2021/05/10 04:38:12;;;;;;;4.30;1.00;;;16.60;99.90;;;16.38;61.65;96490.56;4932413;28;20471;-65
2021/05/10 04:40:59;;;;;;;6.13;1.20;;;16.70;99.90;;;16.26;62.22;96501.09;4921527;29;20051;-66
2021/05/10 04:43:26;;;;;;;3.55;1.23;;;16.80;99.90;;;16.22;62.33;96510.13;4922301;29;20460;-65
2021/05/10 04:45:54;;;;;;;2.65;1.10;;;16.80;99.90;;;16.49;61.10;96496.53;4933364;29;20102;-65
2021/05/10 04:48:42;;;;;;;4.13;1.02;;;16.90;99.90;;;16.32;62.54;96497.13;4939233;28;20039;-65
2021/05/10 04:51:29;;;;;;;4.07;1.40;;;17.00;99.90;;;16.48;61.12;96504.53;4936367;28;20498;-65
2021/05/10 04:54:16;;;;;;;2.97;1.17;;;16.90;99.90;;;16.48;60.75;96507.97;4948918;28;20066;-65
2021/05/10 04:57:02;;;;;;;4.93;2.03;;;16.80;99.90;;;16.40;61.14;96507.78;4934997;28;20528;-65
2021/05/10 04:59:49;;;;;;;6.55;2.10;;;16.90;99.90;;;16.33;60.78;96500.56;4938231;28;20122;-65
2021/05/10 05:02:33;;;;;;;5.72;2.17;;;16.90;99.90;;;16.39;60.19;96521.00;4947225;28;20050;-65
2021/05/10 05:05:01;;;;;;;3.55;1.10;;;16.90;99.90;;;16.59;58.63;96519.34;4952965;29;20043;-65
2021/05/10 05:07:28;;;;;;;4.28;1.55;;;16.80;99.90;;;16.49;60.16;96530.59;4934252;29;20047;-65
2021/05/10 05:09:54;;;;;;;5.32;1.52;;;16.90;99.90;;;16.35;60.69;96519.59;4926073;29;20055;-66
2021/05/10 05:12:42;;;;;;;5.25;2.30;;;16.80;99.90;;;16.10;62.40;96522.47;4941835;29;20161;-65
2021/05/10 05:15:28;;;;;;;6.00;2.30;;;16.70;99.90;;;16.04;63.06;96527.34;4931189;29;20047;-66
2021/05/10 05:17:55;;;;;;;4.82;1.80;;;16.60;99.90;;;16.00;62.72;96536.41;4936847;29;20047;-65
2021/05/10 05:20:21;;;;;;;5.38;1.83;;;16.40;99.90;;;15.96;62.68;96538.44;4933334;29;20099;-65
2021/05/10 05:22:48;;;;;;;8.88;1.88;;;16.40;99.90;;;15.99;62.65;96522.50;4937932;29;20058;-65
2021/05/10 05:25:15;;;;;;;5.53;1.23;;;16.50;99.90;;;15.86;63.94;96525.25;4941405;29;20114;-65
2021/05/10 05:27:41;;;;;;;4.38;2.15;;;16.40;99.90;;;15.90;63.94;96538.94;4940707;29;20528;-65
2021/05/10 05:30:10;;;;;;;6.60;1.50;;;16.30;99.90;;;15.87;63.88;96555.72;4944213;29;20043;-65
2021/05/10 05:32:37;;;;;;;4.05;0.82;;;16.30;99.90;;;15.78;64.42;96564.31;4932238;29;20052;-65
2021/05/10 05:35:06;;;;;;;5.18;1.40;;;16.30;99.90;;;15.78;64.63;96560.84;4944816;29;20054;-66
2021/05/10 05:37:32;;;;;;;3.58;1.13;;;16.30;99.90;;;15.67;64.19;96552.06;4951215;28;20054;-66
2021/05/10 05:39:59;;;;;;;5.18;1.15;;;16.30;99.90;;;15.69;63.99;96558.00;4915676;29;20423;-65
2021/05/10 05:42:25;;;;;;;2.80;1.00;;;16.30;99.90;;;15.77;64.23;96560.03;4935424;29;20043;-66
2021/05/10 05:44:54;;;;;;;6.05;1.27;;;16.30;99.90;;;15.69;64.51;96538.81;4951271;29;20127;-65
2021/05/10 05:47:24;;;;;;;4.03;1.10;;;16.40;99.90;;;15.76;64.50;96550.53;4932589;29;20110;-65
2021/05/10 05:49:55;;;;;;;4.70;1.20;;;16.40;99.90;;;15.68;64.67;96550.25;4934241;29;20043;-65
2021/05/10 05:52:21;;;;;;;4.55;1.00;;;16.40;99.90;;;15.71;64.41;96555.28;4900805;29;20044;-65
2021/05/10 05:54:51;;;;;;;4.05;0.98;;;16.30;99.90;;;15.73;64.61;96561.22;4916517;29;20472;-65
2021/05/10 05:57:19;;;;;;;2.65;0.75;;;16.40;99.90;;;15.69;64.70;96565.84;4932120;29;20058;-65
2021/05/10 05:59:46;;;;;;;4.40;1.25;;;16.30;99.90;;;15.72;64.26;96570.03;4942112;28;20110;-65
2021/05/10 06:02:12;;;;;;;3.75;1.02;;;16.40;99.90;;;15.84;64.01;96552.50;4934660;29;20090;-65
2021/05/10 06:04:39;;;;;;;3.00;1.00;;;16.50;99.90;;;15.78;64.69;96553.84;4935710;29;20068;-65
2021/05/10 06:07:05;;;;;;;3.42;0.90;;;16.60;99.90;;;15.88;64.18;96569.63;4934327;29;20083;-65
2021/05/10 06:09:32;;;;;;;4.63;1.17;;;16.60;99.90;;;15.87;64.04;96594.13;4951749;29;20055;-65
2021/05/10 06:11:58;;;;;;;5.90;0.98;;;16.60;99.90;;;15.80;64.81;96603.41;4947852;29;20054;-66
2021/05/10 06:14:25;;;;;;;4.00;1.08;;;16.60;99.90;;;15.63;65.11;96600.31;4933716;29;20039;-65
2021/05/10 06:16:51;;;;;;;6.65;1.08;;;16.70;99.90;;;15.87;64.96;96592.38;4945364;29;20043;-65
2021/05/10 06:19:18;;;;;;;3.33;1.17;;;16.60;99.90;;;15.75;64.78;96587.25;4946622;29;20055;-65
2021/05/10 06:21:45;;;;;;;5.72;0.90;;;16.70;99.90;;;15.74;64.84;96583.81;4935524;29;20090;-65
2021/05/10 06:24:11;;;;;;;4.28;1.00;;;16.70;99.90;;;15.95;64.43;96593.53;4924637;29;20566;-65
2021/05/10 06:26:40;;;;;;;3.67;1.00;;;16.60;99.90;;;15.91;64.20;96600.78;4915274;29;20098;-65
2021/05/10 06:29:06;;;;;;;3.95;0.93;;;16.60;99.90;;;15.98;64.35;96617.66;4939181;29;20051;-65
2021/05/10 06:31:32;;;;;;;5.55;1.10;;;16.50;99.90;;;15.82;64.59;96614.59;4950846;29;20051;-65
2021/05/10 06:34:02;;;;;;;4.68;1.00;;;16.60;99.90;;;15.94;64.56;96618.03;4950312;29;20051;-65
2021/05/10 06:36:28;;;;;;;4.03;0.98;;;16.60;99.90;;;15.79;64.56;96628.75;4950785;29;20054;-65
2021/05/10 06:38:58;;;;;;;11.30;1.02;;;16.60;99.90;;;15.81;64.07;96621.63;4929468;29;20413;-65
2021/05/10 06:41:24;;;;;;;3.58;0.85;;;16.70;99.90;;;15.71;64.50;96644.22;4916176;29;20102;-65
2021/05/10 06:43:51;;;;;;;6.60;0.90;;;16.70;99.90;;;16.07;63.36;96627.38;4949708;29;20047;-65
2021/05/10 06:46:17;;;;;;;4.07;1.20;;;16.80;99.90;;;16.06;64.17;96638.84;4949541;28;20043;-65
2021/05/10 06:48:43;;;;;;;5.85;1.60;;;17.00;99.90;;;16.01;63.49;96634.91;4934160;29;20047;-66
2021/05/10 06:51:10;;;;;;;4.25;1.20;;;17.00;99.90;;;15.98;63.95;96619.44;4934689;29;20103;-66
2021/05/10 06:53:36;;;;;;;4.72;0.93;;;16.90;99.90;;;15.81;64.68;96642.56;4940466;29;20035;-65
2021/05/10 06:56:03;;;;;;;3.58;1.02;;;16.80;99.90;;;15.97;64.81;96616.00;4919921;29;20040;-65
2021/05/10 06:58:30;;;;;;;5.03;0.90;;;16.90;99.90;;;15.83;63.83;96638.03;4944105;29;20513;-66
2021/05/10 07:01:00;;;;;;;4.38;1.48;;;16.80;99.90;;;16.07;64.35;96622.16;4950650;29;20047;-66
2021/05/10 07:03:26;;;;;;;3.13;0.70;;;17.00;99.90;;;15.98;64.08;96643.84;4928727;29;20095;-65
2021/05/10 07:05:53;;;;;;;3.72;0.85;;;17.00;99.90;;;16.23;63.04;96629.63;4931323;29;20131;-65
2021/05/10 07:08:19;;;;;;;2.20;0.65;;;16.90;99.90;;;16.26;62.81;96652.09;4947292;29;20110;-65
2021/05/10 07:10:53;;;;;;;3.50;0.80;;;17.20;99.90;;;16.17;62.99;96645.84;4933349;29;20054;-66
2021/05/10 07:13:22;;;;;;;2.53;0.80;;;17.20;99.90;;;16.07;63.90;96650.13;4951845;29;20106;-65
2021/05/10 07:15:49;;;;;;;2.33;0.82;;;17.30;99.90;;;16.24;62.91;96654.84;4930525;29;20095;-65
2021/05/10 07:18:16;;;;;;;2.45;0.65;;;17.10;99.90;;;16.10;63.29;96655.97;4945446;29;20039;-65
2021/05/10 07:20:45;;;;;;;3.20;0.68;;;16.90;99.90;;;15.62;64.21;96678.91;4940678;29;20142;-65
2021/05/10 07:23:14;;;;;;;2.00;0.68;;;16.90;99.90;;;15.87;64.92;96660.41;4938989;29;20082;-66
2021/05/10 07:25:47;;;;;;;2.15;0.77;;;16.90;99.90;;;16.34;63.73;96652.31;4932836;29;20051;-65
2021/05/10 07:28:17;;;;;;;2.17;0.70;;;16.90;99.90;;;15.94;63.34;96667.75;4950408;29;20051;-65
2021/05/10 07:30:46;;;;;;;3.78;0.50;;;16.90;99.90;;;16.19;63.74;96664.84;4933904;29;20051;-65
2021/05/10 07:33:13;;;;;;;2.30;0.60;;;16.90;99.90;;;16.31;63.01;96647.34;4945270;29;20038;-65
2021/05/10 07:35:39;;;;;;;3.47;0.60;;;16.90;99.90;;;16.33;62.00;96676.00;4949496;29;20054;-65
2021/05/10 07:38:06;;;;;;;2.75;0.55;;;16.90;99.90;;;16.24;62.41;96654.03;4950907;29;20098;-65
2021/05/10 07:40:33;;;;;;;1.63;0.45;;;16.90;99.90;;;15.94;62.73;96646.81;4917262;29;20082;-65
2021/05/10 07:43:01;;;;;;;4.70;0.55;;;16.90;99.90;;;16.26;61.55;96658.19;4950706;29;20051;-65
2021/05/10 07:45:28;;;;;;;3.10;0.60;;;16.80;99.90;;;16.09;61.33;96685.69;4930658;29;20111;-65
2021/05/10 07:47:56;;;;;;;3.67;0.68;;;16.70;99.90;;;15.93;63.13;96687.03;4939334;29;20058;-65
2021/05/10 07:50:25;;;;;;;2.83;0.63;;;16.80;99.90;;;15.93;63.67;96700.13;4950360;29;20465;-65
2021/05/10 07:52:53;;;;;;;2.53;0.60;;;16.60;99.90;;;15.55;65.61;96717.78;4949194;29;20582;-65
2021/05/10 07:55:20;;;;;;;3.38;0.50;;;16.30;99.90;;;15.57;65.82;96691.53;4948759;29;20066;-65
2021/05/10 07:57:47;;;;;;;1.25;0.40;;;16.20;99.90;;;15.16;65.85;96701.56;4945193;29;20364;-65
2021/05/10 08:00:22;;;;;;;3.50;0.57;;;16.00;99.90;;;15.07;68.13;96694.41;4947783;29;20054;-65
2021/05/10 08:02:52;;;;;;;1.60;0.40;;;16.00;99.90;;;15.24;67.16;96690.53;4943026;29;20397;-66
2021/05/10 08:05:41;;;;;;;3.97;0.40;;;15.80;99.90;;;15.37;66.98;96695.66;4949288;29;20075;-65
2021/05/10 08:08:28;;;;;;;2.22;0.40;;;15.90;99.90;;;15.21;66.12;96699.44;4949487;29;20150;-65
2021/05/10 08:11:15;;;;;;;1.15;0.40;;;15.90;99.90;;;15.29;66.35;96695.41;4939366;29;20055;-65
2021/05/10 08:14:02;;;;;;;0.85;0.47;;;15.80;99.90;;;14.94;68.93;96720.63;4948481;29;20040;-65
2021/05/10 08:16:50;;;;;;;3.97;0.63;;;15.90;99.90;;;14.79;68.25;96722.56;4928158;29;20055;-65
2021/05/10 08:19:36;;;;;;;2.70;0.55;;;15.90;99.90;;;14.76;68.59;96732.44;4948593;29;20054;-65
2021/05/10 08:22:23;;;;;;;1.17;0.50;;;15.80;99.90;;;14.95;68.48;96717.06;4919336;29;20036;-65
2021/05/10 08:25:12;;;;;;;2.05;0.60;;;15.80;99.90;;;14.84;68.99;96727.47;4935125;29;20035;-66
2021/05/10 08:27:59;;;;;;;2.03;0.50;;;15.70;99.90;;;14.63;69.82;96763.81;4937560;29;20058;-66
2021/05/10 08:30:46;;;;;;;2.15;0.60;;;15.80;99.90;;;14.80;69.22;96763.44;4947260;29;20599;-65
2021/05/10 08:33:33;;;;;;;2.28;0.50;;;15.70;99.90;;;14.91;68.05;96786.16;4932233;29;20044;-66
2021/05/10 08:36:20;;;;;;;1.75;0.50;;;15.60;99.90;;;14.96;69.07;96772.75;4950152;28;20043;-65
2021/05/10 08:39:09;;;;;;;2.10;0.60;;;15.70;99.90;;;14.86;69.21;96756.94;4952432;29;20111;-65
2021/05/10 08:41:55;;;;;;;1.80;0.65;;;15.90;99.90;;;15.57;66.98;96756.91;4946706;28;20043;-66
2021/05/10 08:44:45;;;;;;;1.58;0.60;;;16.10;99.90;;;15.06;69.53;96789.44;4953935;28;20071;-65
2021/05/10 08:47:32;;;;;;;2.58;0.50;;;16.10;99.90;;;14.67;70.54;96783.56;4952598;29;20043;-65
2021/05/10 08:50:19;;;;;;;1.33;0.50;;;16.00;99.90;;;14.50;70.30;96781.28;4951726;29;20047;-65
2021/05/10 08:53:06;;;;;;;1.67;0.50;;;15.80;99.90;;;14.42;70.59;96795.72;4941978;29;20249;-65
2021/05/10 08:55:53;;;;;;;1.63;0.43;;;15.60;99.90;;;14.30;70.51;96803.56;4928490;29;20444;-65
2021/05/10 08:58:45;;;;;;;1.63;0.70;;;15.50;99.90;;;14.38;71.05;96817.75;4947895;28;20411;-65
2021/05/10 09:01:51;;;;;;;1.25;0.40;;;15.30;99.90;;;14.38;70.76;96837.81;4933357;29;20066;-65
2021/05/10 09:04:43;;;;;;;1.45;0.50;;;15.30;99.90;;;14.64;71.32;96821.19;4948011;29;20593;-65
2021/05/10 09:07:33;;;;;;;2.10;0.50;;;15.40;99.90;;;14.50;72.24;96817.84;4943403;29;20044;-65
2021/05/10 09:10:20;;;;;;;2.97;0.70;;;15.50;99.90;;;14.12;73.21;96850.06;4941936;28;20063;-66
2021/05/10 09:13:07;;;;;;;2.70;0.50;;;15.50;99.90;;;14.13;73.25;96843.88;4945505;28;20039;-65
2021/05/10 09:16:02;;;;;;;2.88;0.52;;;15.30;99.90;;;14.22;74.14;96815.38;4947919;29;20550;-65
2021/05/10 09:18:57;;;;;;;1.30;0.50;;;15.30;99.90;;;14.68;72.09;96795.66;4937343;28;20058;-65
2021/05/10 09:21:55;;;;;;;1.02;0.40;;;15.30;99.90;;;14.56;72.41;96799.97;4936058;29;20054;-66
2021/05/10 09:24:52;;;;;;;2.55;0.50;;;15.10;99.90;;;14.40;73.17;96797.59;4941475;29;20119;-65
2021/05/10 09:27:39;;;;;;;1.83;0.50;;;15.20;99.90;;;14.22;73.83;96804.94;4945966;29;20138;-65
2021/05/10 09:30:27;;;;;;;3.38;0.80;;;15.20;99.90;;;14.07;73.97;96806.03;4948677;28;20423;-66
2021/05/10 09:33:35;;;;;;;1.60;0.77;;;15.30;99.90;;;14.20;74.71;96804.19;4944032;28;20074;-66
2021/05/10 09:36:40;;;;;;;1.10;0.60;;;15.40;99.90;;;14.61;73.48;96810.94;4947224;28;20051;-65
2021/05/10 09:39:30;;;;;;;1.27;0.50;;;15.40;99.90;;;14.35;74.32;96817.16;4934638;29;20084;-65
2021/05/10 09:42:23;;;;;;;1.05;0.50;;;15.30;99.90;;;14.27;73.40;96820.28;4947121;29;20390;-65
2021/05/10 09:45:10;;;;;;;1.55;0.60;;;15.20;99.90;;;14.49;73.03;96821.41;4924520;28;20042;-65
2021/05/10 09:48:27;;;;;;;2.45;0.55;;;15.20;99.90;;;14.90;73.05;96828.94;4943398;28;20046;-66
2021/05/10 09:51:16;;;;;;;2.05;0.43;;;15.50;99.90;;;14.49;73.31;96848.34;4941584;29;20048;-65
2021/05/10 09:54:11;;;;;;;0.52;0.30;;;15.50;99.90;;;14.53;73.43;96873.31;4938421;29;20043;-66
2021/05/10 09:57:04;;;;;;;1.23;0.40;;;15.60;99.90;;;14.40;74.37;96880.31;4952176;29;20040;-65
2021/05/10 10:00:14;;;;;;;2.67;0.50;;;15.60;99.90;;;14.08;76.10;96872.91;4938267;28;20055;-65
2021/05/10 10:03:01;;;;;;;0.40;0.30;;;15.30;99.90;;;13.91;75.67;96850.59;4942875;28;20066;-65
2021/05/10 10:05:50;;;;;;;1.00;0.40;;;15.00;99.90;;;13.75;77.50;96871.66;4943750;29;20051;-65
2021/05/10 10:08:39;;;;;;;3.15;0.70;;;14.90;99.90;;;13.78;78.72;96881.03;4929266;29;20115;-65
2021/05/10 10:11:27;;;;;;;2.72;0.50;;;14.90;99.90;;;13.76;77.58;96899.38;4927568;29;20051;-65
2021/05/10 10:14:14;;;;;;;1.30;0.52;;;14.90;99.90;;;13.85;79.21;96887.50;4941776;29;20043;-65
2021/05/10 10:17:10;;;;;;;2.50;0.70;;;14.90;99.90;;;13.47;79.80;96903.91;4952243;28;20190;-66
2021/05/10 10:19:58;;;;;;;0.80;0.50;;;14.70;99.90;;;13.63;79.03;96888.09;4926290;29;20044;-65
2021/05/10 10:22:45;;;;;;;1.25;0.60;;;14.50;99.90;;;13.44;81.10;96885.84;4943388;29;20050;-65
2021/05/10 10:25:37;;;;;;;2.45;0.60;;;14.40;99.90;;;13.30;81.27;96880.72;4920444;29;20044;-66
2021/05/10 10:28:36;;;;;;;3.28;0.60;;;14.30;99.90;;;13.39;80.39;96865.31;4928847;29;20043;-65
2021/05/10 10:31:26;;;;;;;3.60;0.70;;;14.10;99.90;;;13.19;83.01;96883.97;4928329;29;20392;-65
2021/05/10 10:34:20;;;;;;;2.35;0.73;;;14.10;99.90;;;13.18;84.23;96874.47;4921301;29;20055;-65
2021/05/10 10:37:07;;;;;;;2.05;0.95;;;14.10;99.90;;;13.09;83.52;96886.34;4945308;29;20120;-65
2021/05/10 10:39:56;;;;;;;1.55;0.52;;;14.00;99.90;;;13.01;83.02;96892.97;4933072;29;20147;-65
2021/05/10 10:42:43;;;;;;;2.13;0.80;;;13.80;99.90;;;13.02;83.65;96900.66;4924115;29;20126;-64
2021/05/10 10:45:30;;;;;;;2.30;0.73;;;13.80;99.90;;;12.86;84.91;96908.59;4917983;28;20040;-65
2021/05/10 10:48:31;;;;;;;3.25;0.80;;;13.80;99.90;;;13.13;87.04;96908.63;4941022;28;20640;-66
2021/05/10 10:51:19;;;;;;;1.63;0.70;;;13.90;99.90;;;13.31;85.78;96944.94;4929048;29;20047;-65
2021/05/10 10:54:21;;;;;;;2.17;0.70;;;14.00;99.90;;;13.19;85.71;96946.50;4957541;28;20055;-65
2021/05/10 10:57:08;;;;;;;1.42;0.60;;;14.00;99.90;;;13.34;85.81;96949.94;4949183;29;20039;-65